createdAt,value
2018-06-29T00:01:56.814Z,17.50
2018-06-29T00:04:28.356Z,17.50
2018-06-29T00:07:00.105Z,17.50
2018-06-29T00:09:31.681Z,17.50
2018-06-29T00:12:03.382Z,17.50
2018-06-29T00:14:34.860Z,17.50
2018-06-29T00:17:06.672Z,17.50
2018-06-29T00:19:38.291Z,17.50
2018-06-29T00:22:09.900Z,17.50
2018-06-29T00:24:41.490Z,17.50
2018-06-29T00:27:13.148Z,17.50
2018-06-29T00:29:44.700Z,17.50
2018-06-29T00:32:16.306Z,17.50
2018-06-29T00:34:47.908Z,17.50
2018-06-29T00:37:19.500Z,17.50
2018-06-29T00:39:51.143Z,17.40
2018-06-29T00:42:22.881Z,17.40
2018-06-29T00:44:54.494Z,17.40
2018-06-29T00:47:26.081Z,17.40
2018-06-29T00:49:57.674Z,17.40
2018-06-29T00:52:29.349Z,17.40
2018-06-29T00:55:00.888Z,17.40
2018-06-29T00:57:32.579Z,17.50
2018-06-29T01:00:08.658Z,17.50
2018-06-29T01:02:40.484Z,17.50
2018-06-29T01:05:12.133Z,17.50
2018-06-29T01:07:43.722Z,17.50
2018-06-29T01:10:15.306Z,17.50
2018-06-29T01:12:47.033Z,17.50
2018-06-29T01:15:18.720Z,17.50
2018-06-29T01:17:50.354Z,17.50
2018-06-29T01:20:21.984Z,17.50
2018-06-29T01:22:53.649Z,17.40
2018-06-29T01:25:25.283Z,17.40
2018-06-29T01:27:57.045Z,17.40
2018-06-29T01:30:28.582Z,17.40
2018-06-29T01:33:00.316Z,17.40
2018-06-29T01:35:31.892Z,17.40
2018-06-29T01:38:03.670Z,17.40
2018-06-29T01:40:35.179Z,17.30
2018-06-29T01:43:06.878Z,17.30
2018-06-29T01:45:38.445Z,17.30
2018-06-29T01:48:10.318Z,17.30
2018-06-29T01:50:42.051Z,17.30
2018-06-29T01:53:13.605Z,17.30
2018-06-29T01:55:45.215Z,17.30
2018-06-29T01:58:16.808Z,17.30
2018-06-29T02:00:48.429Z,17.30
2018-06-29T02:03:20.232Z,17.20
2018-06-29T02:05:51.910Z,17.20
2018-06-29T02:08:23.452Z,17.20
2018-06-29T02:10:54.993Z,17.20
2018-06-29T02:13:26.706Z,17.20
2018-06-29T02:15:58.291Z,17.20
2018-06-29T02:18:30.289Z,17.20
2018-06-29T02:21:01.793Z,17.20
2018-06-29T02:23:33.415Z,17.10
2018-06-29T02:26:04.996Z,17.10
2018-06-29T02:28:36.524Z,17.00
2018-06-29T02:31:08.251Z,17.10
2018-06-29T02:33:39.837Z,17.00
2018-06-29T02:36:11.522Z,17.00
2018-06-29T02:38:43.144Z,17.00
2018-06-29T02:41:15.040Z,17.00
2018-06-29T02:43:46.745Z,17.00
2018-06-29T02:46:18.387Z,17.00
2018-06-29T02:48:50.279Z,16.90
2018-06-29T02:51:22.048Z,16.90
2018-06-29T02:53:53.892Z,16.90
2018-06-29T02:56:25.599Z,16.90
2018-06-29T02:58:57.208Z,16.90
2018-06-29T03:01:28.842Z,16.90
2018-06-29T03:04:00.509Z,16.90
2018-06-29T03:06:32.160Z,16.80
2018-06-29T03:09:03.748Z,16.80
2018-06-29T03:11:35.424Z,16.80
2018-06-29T03:14:07.389Z,16.70
2018-06-29T03:16:38.928Z,16.70
2018-06-29T03:19:10.744Z,16.70
2018-06-29T03:21:42.269Z,16.70
2018-06-29T03:24:13.957Z,16.70
2018-06-29T03:26:45.624Z,16.80
2018-06-29T03:29:17.197Z,16.80
2018-06-29T03:31:48.937Z,16.80
2018-06-29T03:34:20.509Z,16.80
2018-06-29T03:36:52.180Z,16.80
2018-06-29T03:39:23.820Z,16.80
2018-06-29T03:41:55.447Z,16.80
2018-06-29T03:44:26.988Z,16.80
2018-06-29T03:46:58.609Z,16.80
2018-06-29T03:49:30.344Z,16.80
2018-06-29T03:52:02.070Z,16.80
2018-06-29T03:54:33.768Z,16.80
2018-06-29T03:57:05.361Z,16.80
2018-06-29T03:59:37.102Z,16.80
2018-06-29T04:02:08.761Z,16.80
2018-06-29T04:04:40.518Z,16.90
2018-06-29T04:07:12.088Z,16.90
2018-06-29T04:09:43.769Z,16.90
2018-06-29T04:12:15.306Z,16.90
2018-06-29T04:14:47.009Z,16.90
2018-06-29T04:17:18.486Z,16.90
2018-06-29T04:19:50.192Z,16.90
2018-06-29T04:22:21.702Z,16.90
2018-06-29T04:24:57.743Z,16.90
2018-06-29T04:27:29.381Z,16.90
2018-06-29T04:30:01.032Z,16.90
2018-06-29T04:32:32.562Z,16.90
2018-06-29T04:35:04.340Z,16.90
2018-06-29T04:37:36.042Z,16.90
2018-06-29T04:40:07.658Z,16.90
2018-06-29T04:42:39.300Z,17.00
2018-06-29T04:45:10.853Z,17.00
2018-06-29T04:47:42.513Z,17.00
2018-06-29T04:50:14.262Z,17.00
2018-06-29T04:52:45.930Z,17.00
2018-06-29T04:55:17.636Z,17.10
2018-06-29T04:57:49.273Z,17.10
2018-06-29T05:00:21.058Z,17.10
2018-06-29T05:02:52.647Z,17.20
2018-06-29T05:05:24.573Z,17.20
2018-06-29T05:07:56.301Z,17.30
2018-06-29T05:10:27.881Z,17.30
2018-06-29T05:12:59.585Z,17.40
2018-06-29T05:15:31.301Z,17.40
2018-06-29T05:18:02.820Z,17.50
2018-06-29T05:20:34.407Z,17.40
2018-06-29T05:23:06.208Z,17.50
2018-06-29T05:25:37.828Z,17.40
2018-06-29T05:28:09.576Z,17.50
2018-06-29T05:30:41.170Z,17.50
2018-06-29T05:33:12.845Z,17.50
2018-06-29T05:35:44.546Z,17.60
2018-06-29T05:38:16.267Z,17.60
2018-06-29T05:40:47.925Z,17.60
2018-06-29T05:43:19.505Z,17.60
2018-06-29T05:45:51.185Z,17.70
2018-06-29T05:48:22.800Z,17.80
2018-06-29T05:50:54.453Z,17.90
2018-06-29T05:53:26.018Z,17.90
2018-06-29T05:55:57.756Z,18.00
2018-06-29T05:58:29.319Z,18.00
2018-06-29T06:01:01.026Z,18.10
2018-06-29T06:03:32.614Z,18.10
2018-06-29T06:06:04.236Z,18.10
2018-06-29T06:08:35.827Z,18.20
2018-06-29T06:11:07.748Z,18.20
2018-06-29T06:13:39.546Z,18.20
2018-06-29T06:16:11.366Z,18.30
2018-06-29T06:18:43.166Z,18.30
2018-06-29T06:21:14.809Z,18.30
2018-06-29T06:23:46.481Z,18.40
2018-06-29T06:26:17.985Z,18.40
2018-06-29T06:28:49.701Z,18.40
2018-06-29T06:31:21.210Z,18.40
2018-06-29T06:33:52.898Z,18.40
2018-06-29T06:36:24.469Z,18.50
2018-06-29T06:38:56.040Z,18.50
2018-06-29T06:41:27.857Z,18.60
2018-06-29T06:43:59.629Z,18.60
2018-06-29T06:46:31.171Z,18.70
2018-06-29T06:49:02.733Z,18.80
2018-06-29T06:51:34.358Z,18.80
2018-06-29T06:54:06.154Z,18.80
2018-06-29T06:56:37.910Z,18.90
2018-06-29T06:59:09.568Z,18.90
2018-06-29T07:01:41.164Z,19.00
2018-06-29T07:04:12.878Z,19.10
2018-06-29T07:06:44.554Z,19.10
2018-06-29T07:09:16.121Z,19.20
2018-06-29T07:11:47.759Z,19.20
2018-06-29T07:14:19.428Z,19.30
2018-06-29T07:16:51.121Z,19.50
2018-06-29T07:19:22.748Z,19.60
2018-06-29T07:21:54.464Z,19.70
2018-06-29T07:24:26.213Z,19.80
2018-06-29T07:26:57.773Z,19.90
2018-06-29T07:29:30.421Z,19.90
2018-06-29T07:32:02.080Z,20.00
2018-06-29T07:34:33.722Z,20.20
2018-06-29T07:37:05.492Z,20.30
2018-06-29T07:39:37.209Z,20.50
2018-06-29T07:42:08.849Z,20.60
2018-06-29T07:44:40.522Z,20.70
2018-06-29T07:47:12.008Z,20.80
2018-06-29T07:49:43.621Z,20.90
2018-06-29T07:52:15.124Z,20.90
2018-06-29T07:54:46.762Z,21.00
2018-06-29T07:57:19.217Z,21.00
2018-06-29T07:59:50.961Z,21.00
2018-06-29T08:04:53.898Z,20.90
2018-06-29T08:07:25.479Z,21.00
2018-06-29T08:09:57.176Z,20.90
2018-06-29T08:12:28.834Z,20.90
2018-06-29T08:15:00.499Z,20.90
2018-06-29T08:17:31.998Z,20.90
2018-06-29T08:20:03.633Z,21.00
2018-06-29T08:22:35.324Z,21.00
2018-06-29T08:25:15.659Z,21.10
2018-06-29T08:27:47.397Z,21.20
2018-06-29T08:30:19.058Z,21.30
2018-06-29T08:32:50.689Z,21.40
2018-06-29T08:35:22.247Z,21.60
2018-06-29T08:37:53.861Z,21.80
2018-06-29T08:40:25.655Z,22.20
2018-06-29T08:42:57.273Z,22.70
2018-06-29T08:45:29.027Z,23.00
2018-06-29T08:48:00.638Z,23.40
2018-06-29T08:50:32.296Z,23.60
2018-06-29T08:53:03.815Z,23.90
2018-06-29T08:55:35.602Z,24.00
2018-06-29T08:58:07.201Z,24.10
2018-06-29T09:00:38.966Z,24.10
2018-06-29T09:03:10.548Z,24.00
2018-06-29T09:05:42.323Z,24.00
2018-06-29T09:08:13.837Z,23.90
2018-06-29T09:10:45.744Z,23.90
2018-06-29T09:13:17.297Z,23.90
2018-06-29T09:15:49.051Z,23.90
2018-06-29T09:18:20.587Z,24.00
2018-06-29T09:20:52.316Z,24.00
2018-06-29T09:23:23.901Z,24.10
2018-06-29T09:25:55.696Z,24.20
2018-06-29T09:28:27.181Z,24.50
2018-06-29T09:30:58.881Z,24.70
2018-06-29T09:33:30.388Z,24.90
2018-06-29T09:36:02.005Z,24.80
2018-06-29T09:38:33.505Z,24.80
2018-06-29T09:41:05.245Z,24.80
2018-06-29T09:43:37.068Z,24.70
2018-06-29T09:48:39.854Z,24.50
2018-06-29T09:51:11.457Z,24.40
2018-06-29T09:53:43.182Z,24.30
2018-06-29T09:56:14.752Z,24.30
2018-06-29T09:58:46.390Z,24.30
2018-06-29T10:01:18.078Z,24.50
2018-06-29T10:03:49.696Z,24.70
2018-06-29T10:06:21.494Z,25.00
2018-06-29T10:08:53.238Z,25.20
2018-06-29T10:11:24.941Z,25.40
2018-06-29T10:13:56.836Z,25.70
2018-06-29T10:16:28.296Z,25.90
2018-06-29T10:18:59.808Z,26.00
2018-06-29T10:21:31.539Z,26.10
2018-06-29T10:24:03.248Z,26.20
2018-06-29T10:26:34.820Z,26.30
2018-06-29T10:29:06.434Z,26.50
2018-06-29T10:31:38.021Z,26.60
2018-06-29T10:34:09.646Z,26.80
2018-06-29T10:36:41.422Z,27.00
2018-06-29T10:39:15.203Z,27.00
2018-06-29T10:41:46.817Z,27.10
2018-06-29T10:44:18.517Z,27.20
2018-06-29T10:46:50.109Z,27.40
2018-06-29T10:49:21.654Z,27.50
2018-06-29T10:51:53.318Z,27.70
2018-06-29T10:54:24.950Z,27.80
2018-06-29T10:56:56.657Z,27.90
2018-06-29T10:59:28.256Z,28.20
2018-06-29T11:02:00.009Z,28.40
2018-06-29T11:04:31.622Z,28.60
2018-06-29T11:07:03.337Z,28.60
2018-06-29T11:09:35.116Z,28.60
2018-06-29T11:12:06.856Z,28.50
2018-06-29T11:14:38.506Z,28.50
2018-06-29T11:17:10.109Z,28.60
2018-06-29T11:19:41.641Z,28.50
2018-06-29T11:22:13.436Z,28.30
2018-06-29T11:24:45.025Z,28.30
2018-06-29T11:27:16.723Z,28.30
2018-06-29T11:29:48.260Z,28.30
2018-06-29T11:32:19.944Z,28.30
2018-06-29T11:34:51.469Z,28.40
2018-06-29T11:37:23.154Z,28.40
2018-06-29T11:39:54.752Z,28.40
2018-06-29T11:42:26.524Z,28.20
2018-06-29T11:44:58.179Z,28.10
2018-06-29T11:47:29.809Z,28.00
2018-06-29T11:50:01.481Z,28.00
2018-06-29T11:52:33.118Z,28.00
2018-06-29T11:55:04.905Z,28.00
2018-06-29T11:57:36.702Z,28.00
2018-06-29T12:00:08.457Z,27.90
2018-06-29T12:02:40.188Z,27.80
2018-06-29T12:05:12.029Z,27.70
2018-06-29T12:07:43.666Z,27.50
2018-06-29T12:10:15.447Z,27.30
2018-06-29T12:12:47.069Z,27.30
2018-06-29T12:15:18.812Z,27.30
2018-06-29T12:17:50.775Z,27.50
2018-06-29T12:20:22.362Z,27.60
2018-06-29T12:22:54.089Z,27.70
2018-06-29T12:25:25.653Z,27.60
2018-06-29T12:27:57.357Z,27.60
2018-06-29T12:30:29.094Z,27.50
2018-06-29T12:33:00.765Z,27.50
2018-06-29T12:35:32.370Z,27.50
2018-06-29T12:38:04.053Z,27.40
2018-06-29T12:43:06.999Z,27.40
2018-06-29T12:45:38.745Z,27.50
2018-06-29T12:48:10.329Z,27.70
2018-06-29T12:50:42.110Z,27.70
2018-06-29T12:53:13.717Z,27.60
2018-06-29T12:55:45.600Z,27.50
2018-06-29T12:58:17.165Z,27.40
2018-06-29T13:00:48.841Z,27.40
2018-06-29T13:03:20.378Z,27.30
2018-06-29T13:05:52.048Z,27.30
2018-06-29T13:08:23.553Z,27.30
2018-06-29T13:10:55.252Z,27.30
2018-06-29T13:13:26.762Z,27.20
2018-06-29T13:15:58.373Z,27.30
2018-06-29T13:18:30.045Z,27.50
2018-06-29T13:21:01.597Z,27.70
2018-06-29T13:23:33.301Z,27.80
2018-06-29T13:26:04.937Z,27.80
2018-06-29T13:28:36.614Z,27.80
2018-06-29T13:31:08.356Z,27.80
2018-06-29T13:33:39.943Z,27.70
2018-06-29T13:36:11.659Z,27.70
2018-06-29T13:38:43.470Z,27.60
2018-06-29T13:41:15.066Z,27.60
2018-06-29T13:43:46.819Z,27.60
2018-06-29T13:46:18.379Z,27.70
2018-06-29T13:48:50.102Z,27.70
2018-06-29T13:53:52.546Z,27.80
2018-06-29T13:56:24.257Z,27.80
2018-06-29T13:58:55.844Z,27.80
2018-06-29T14:01:27.673Z,27.90
2018-06-29T14:03:59.334Z,27.90
2018-06-29T14:06:31.012Z,28.00
2018-06-29T14:09:02.748Z,28.10
2018-06-29T14:11:34.495Z,28.00
2018-06-29T14:14:06.021Z,27.90
2018-06-29T14:16:37.691Z,27.90
2018-06-29T14:19:09.326Z,28.00
2018-06-29T14:21:41.086Z,28.10
2018-06-29T14:24:12.694Z,28.20
2018-06-29T14:26:44.352Z,28.30
2018-06-29T14:29:15.874Z,28.40
2018-06-29T14:31:47.549Z,28.40
2018-06-29T14:34:19.199Z,28.30
2018-06-29T14:36:50.860Z,28.10
2018-06-29T14:39:22.365Z,28.00
2018-06-29T14:41:54.116Z,27.90
2018-06-29T14:44:25.826Z,27.80
2018-06-29T14:49:28.397Z,27.80
2018-06-29T14:51:59.989Z,27.90
2018-06-29T14:57:02.650Z,28.20
2018-06-29T14:59:34.275Z,28.30
2018-06-29T15:02:05.996Z,28.30
2018-06-29T15:04:37.525Z,28.40
2018-06-29T15:07:09.250Z,28.50
2018-06-29T15:09:40.833Z,28.50
2018-06-29T15:12:12.617Z,28.50
2018-06-29T15:14:44.271Z,28.50
2018-06-29T15:17:15.937Z,28.40
2018-06-29T15:19:47.439Z,28.30
2018-06-29T15:22:19.071Z,28.20
2018-06-29T15:24:50.806Z,28.20
2018-06-29T15:27:22.381Z,28.10
2018-06-29T15:29:54.106Z,27.90
2018-06-29T15:32:25.695Z,27.90
2018-06-29T15:34:57.281Z,27.90
2018-06-29T15:37:28.902Z,27.90
2018-06-29T15:40:00.510Z,28.00
2018-06-29T15:42:32.080Z,28.10
2018-06-29T15:45:03.931Z,28.10
2018-06-29T15:47:35.494Z,28.10
2018-06-29T15:50:07.516Z,28.10
2018-06-29T15:52:39.222Z,28.20
2018-06-29T15:57:42.022Z,28.20
2018-06-29T16:00:13.634Z,28.10
2018-06-29T16:02:45.409Z,28.10
2018-06-29T16:05:17.018Z,28.00
2018-06-29T16:07:48.677Z,27.90
2018-06-29T16:10:20.406Z,27.90
2018-06-29T16:12:51.960Z,27.90
2018-06-29T16:15:23.569Z,27.90
2018-06-29T16:17:55.272Z,27.90
2018-06-29T16:20:26.883Z,27.80
2018-06-29T16:22:58.478Z,27.80
2018-06-29T16:25:30.097Z,27.80
2018-06-29T16:28:01.861Z,27.70
2018-06-29T16:30:33.433Z,27.70
2018-06-29T16:33:05.315Z,27.60
2018-06-29T16:35:37.073Z,27.50
2018-06-29T16:38:09.255Z,27.50
2018-06-29T16:40:40.848Z,27.50
2018-06-29T16:43:12.444Z,27.50
2018-06-29T16:45:44.057Z,27.60
2018-06-29T16:48:15.861Z,27.50
2018-06-29T16:50:47.479Z,27.50
2018-06-29T16:53:19.074Z,27.40
2018-06-29T16:55:50.692Z,27.40
2018-06-29T16:58:22.502Z,27.30
2018-06-29T17:00:54.362Z,27.30
2018-06-29T17:03:26.007Z,27.10
2018-06-29T17:05:57.512Z,27.10
2018-06-29T17:08:29.149Z,27.00
2018-06-29T17:11:00.738Z,27.00
2018-06-29T17:13:32.355Z,26.90
2018-06-29T17:16:03.986Z,26.90
2018-06-29T17:18:35.630Z,26.80
2018-06-29T17:21:07.157Z,26.80
2018-06-29T17:23:38.901Z,26.70
2018-06-29T17:26:10.465Z,26.80
2018-06-29T17:28:42.145Z,26.70
2018-06-29T17:31:13.705Z,26.70
2018-06-29T17:33:45.394Z,26.60
2018-06-29T17:36:16.984Z,26.60
2018-06-29T17:38:48.693Z,26.50
2018-06-29T17:41:20.125Z,26.50
2018-06-29T17:43:51.846Z,26.40
2018-06-29T17:46:23.526Z,26.40
2018-06-29T17:48:55.225Z,26.30
2018-06-29T17:51:26.873Z,26.30
2018-06-29T17:53:58.602Z,26.20
2018-06-29T17:56:30.383Z,26.20
2018-06-29T17:59:01.941Z,26.10
2018-06-29T18:01:33.558Z,26.00
2018-06-29T18:04:05.086Z,26.00
2018-06-29T18:06:36.870Z,25.90
2018-06-29T18:09:11.104Z,25.80
2018-06-29T18:11:42.767Z,25.80
2018-06-29T18:14:14.350Z,25.70
2018-06-29T18:16:45.957Z,25.60
2018-06-29T18:19:17.546Z,25.60
2018-06-29T18:21:49.086Z,25.50
2018-06-29T18:24:20.670Z,25.40
2018-06-29T18:26:52.272Z,25.30
2018-06-29T18:29:23.794Z,25.20
2018-06-29T18:31:55.302Z,25.20
2018-06-29T18:34:26.910Z,25.10
2018-06-29T18:36:58.689Z,25.00
2018-06-29T18:39:30.317Z,25.00
2018-06-29T18:42:02.027Z,24.90
2018-06-29T18:44:33.593Z,24.70
2018-06-29T18:47:05.423Z,24.70
2018-06-29T18:49:37.121Z,24.60
2018-06-29T18:52:08.656Z,24.50
2018-06-29T18:54:40.338Z,24.40
2018-06-29T18:57:11.860Z,24.30
2018-06-29T18:59:43.596Z,24.20
2018-06-29T19:02:15.174Z,24.10
2018-06-29T19:04:46.853Z,24.00
2018-06-29T19:07:18.369Z,23.90
2018-06-29T19:09:49.985Z,23.80
2018-06-29T19:12:21.641Z,23.70
2018-06-29T19:14:53.095Z,23.60
2018-06-29T19:17:24.683Z,23.50
2018-06-29T19:19:56.308Z,23.40
2018-06-29T19:22:27.941Z,23.30
2018-06-29T19:24:59.489Z,23.20
2018-06-29T19:27:31.143Z,23.10
2018-06-29T19:30:02.641Z,23.00
2018-06-29T19:32:34.357Z,22.80
2018-06-29T19:35:05.883Z,22.70
2018-06-29T19:37:37.570Z,22.60
2018-06-29T19:40:09.240Z,22.50
2018-06-29T19:42:40.805Z,22.30
2018-06-29T19:45:12.317Z,22.30
2018-06-29T19:47:44.021Z,22.30
2018-06-29T19:50:15.752Z,22.20
2018-06-29T19:52:47.482Z,22.20
2018-06-29T19:55:19.005Z,22.20
2018-06-29T19:57:50.719Z,22.00
2018-06-29T20:00:22.644Z,21.90
2018-06-29T20:02:54.228Z,21.80
2018-06-29T20:05:25.849Z,21.80
2018-06-29T20:07:57.445Z,21.70
2018-06-29T20:10:28.974Z,21.70
2018-06-29T20:13:00.440Z,21.70
2018-06-29T20:15:32.184Z,21.60
2018-06-29T20:18:03.764Z,21.60
2018-06-29T20:20:35.368Z,21.60
2018-06-29T20:23:06.869Z,21.60
2018-06-29T20:25:38.485Z,21.50
2018-06-29T20:28:10.237Z,21.50
2018-06-29T20:30:41.722Z,21.40
2018-06-29T20:33:13.432Z,21.40
2018-06-29T20:35:45.153Z,21.30
2018-06-29T20:38:16.779Z,21.20
2018-06-29T20:40:48.567Z,21.10
2018-06-29T20:43:20.138Z,20.90
2018-06-29T20:45:51.827Z,20.90
2018-06-29T20:48:23.455Z,20.70
2018-06-29T20:50:55.358Z,20.60
2018-06-29T20:53:27.054Z,20.50
2018-06-29T20:55:58.678Z,20.30
2018-06-29T20:58:30.263Z,20.20
2018-06-29T21:01:01.902Z,20.10
2018-06-29T21:03:33.586Z,20.10
2018-06-29T21:06:05.144Z,20.00
2018-06-29T21:08:36.785Z,20.00
2018-06-29T21:11:08.396Z,19.90
2018-06-29T21:13:40.104Z,19.90
2018-06-29T21:16:11.712Z,19.90
2018-06-29T21:18:43.437Z,19.80
2018-06-29T21:21:15.029Z,19.70
2018-06-29T21:23:46.727Z,19.60
2018-06-29T21:26:18.339Z,19.50
2018-06-29T21:28:50.106Z,19.40
2018-06-29T21:31:21.681Z,19.30
2018-06-29T21:33:53.434Z,19.30
2018-06-29T21:36:25.113Z,19.30
2018-06-29T21:38:56.798Z,19.30
2018-06-29T21:41:28.373Z,19.20
2018-06-29T21:44:00.012Z,19.20
2018-06-29T21:46:31.634Z,19.20
2018-06-29T21:49:03.319Z,19.20
2018-06-29T21:51:34.934Z,19.20
2018-06-29T21:54:06.710Z,19.30
2018-06-29T21:56:38.364Z,19.30
2018-06-29T21:59:10.046Z,19.30
2018-06-29T22:01:41.638Z,19.30
2018-06-29T22:04:13.349Z,19.30
2018-06-29T22:06:44.969Z,19.30
2018-06-29T22:09:16.675Z,19.30
2018-06-29T22:11:48.422Z,19.30
2018-06-29T22:14:19.993Z,19.20
2018-06-29T22:16:51.720Z,19.10
2018-06-29T22:19:23.286Z,19.10
2018-06-29T22:21:54.928Z,19.00
2018-06-29T22:24:26.687Z,18.90
2018-06-29T22:26:58.306Z,18.90
2018-06-29T22:29:29.910Z,18.80
2018-06-29T22:32:01.509Z,18.80
2018-06-29T22:34:33.213Z,18.70
2018-06-29T22:37:04.724Z,18.60
2018-06-29T22:39:36.429Z,18.60
2018-06-29T22:42:08.179Z,18.50
2018-06-29T22:44:39.843Z,18.40
2018-06-29T22:47:11.512Z,18.40
2018-06-29T22:49:43.076Z,18.30
2018-06-29T22:52:14.554Z,18.20
2018-06-29T22:54:46.159Z,18.20
2018-06-29T22:57:18.702Z,18.10
2018-06-29T22:59:50.301Z,18.00
2018-06-29T23:02:22.006Z,18.00
2018-06-29T23:04:53.602Z,17.90
2018-06-29T23:07:25.216Z,17.80
2018-06-29T23:09:56.809Z,17.80
2018-06-29T23:12:28.425Z,17.80
2018-06-29T23:15:00.159Z,17.80
2018-06-29T23:17:31.840Z,17.70
2018-06-29T23:20:03.440Z,17.70
2018-06-29T23:22:34.981Z,17.70
2018-06-29T23:25:06.803Z,17.70
2018-06-29T23:27:38.612Z,17.50
2018-06-29T23:30:10.390Z,17.50
2018-06-29T23:32:41.998Z,17.40
2018-06-29T23:35:13.625Z,17.30
2018-06-29T23:37:45.340Z,17.30
2018-06-29T23:40:16.940Z,17.20
2018-06-29T23:42:48.617Z,17.20
2018-06-29T23:45:20.210Z,17.10
2018-06-29T23:47:51.738Z,17.00
2018-06-29T23:50:23.341Z,17.00
2018-06-29T23:52:55.040Z,17.10
2018-06-29T23:55:26.797Z,17.10
2018-06-29T23:57:58.382Z,17.10
